Terminal Aerodrome Forecast
Issued by NWS

Home | Current Version | Previous Version | Graphics & Text | Print | Product List | Glossary On
Versions: 1 2 3 4 5 6 7 8 9 10 11 12 13 14 15 16 17 18 19
000
FTUS42 KMHX 262020 AAA
TAFOAJ
TAF AMD
KOAJ 262020Z 2620/2718 17010KT P6SM VCTS SCT025 BKN040CB
      TEMPO 2620/2622 VRB15G30KT 2SM TSRA BKN015CB
     FM270600 00000KT 3SM BR SCT005
     FM271200 03008KT P6SM BKN050
      AMD LTD TO CLD VIS AND WIND=

USA.gov is the U.S. government's official web portal to all federal, state and local government web resources and services.